createdAt,value
2022-12-25T00:02:27.216Z,4.60
2022-12-25T00:04:54.095Z,4.30
2022-12-25T00:07:20.908Z,4.35
2022-12-25T00:09:47.741Z,4.50
2022-12-25T00:12:14.771Z,4.78
2022-12-25T00:14:41.685Z,4.18
2022-12-25T00:17:08.566Z,3.45
2022-12-25T00:19:35.460Z,3.78
2022-12-25T00:22:02.307Z,4.15
2022-12-25T00:24:29.413Z,3.72
2022-12-25T00:26:56.198Z,3.90
2022-12-25T00:29:23.148Z,4.07
2022-12-25T00:31:50.079Z,3.65
2022-12-25T00:34:16.928Z,3.60
2022-12-25T00:36:43.768Z,3.97
2022-12-25T00:39:10.811Z,3.70
2022-12-25T00:41:56.112Z,4.45
2022-12-25T00:44:22.951Z,3.22
2022-12-25T00:46:49.808Z,3.63
2022-12-25T00:49:16.682Z,3.70
2022-12-25T00:51:43.497Z,3.33
2022-12-25T00:54:10.376Z,3.55
2022-12-25T00:56:37.165Z,2.97
2022-12-25T00:59:04.028Z,4.13
2022-12-25T01:01:31.077Z,3.65
2022-12-25T01:03:58.209Z,3.65
2022-12-25T01:06:25.532Z,3.58
2022-12-25T01:09:11.503Z,3.40
2022-12-25T01:11:38.408Z,3.38
2022-12-25T01:14:05.353Z,3.15
2022-12-25T01:16:32.236Z,3.40
2022-12-25T01:18:59.447Z,3.15
2022-12-25T01:21:26.564Z,4.22
2022-12-25T01:23:54.296Z,3.08
2022-12-25T01:26:22.901Z,3.60
2022-12-25T01:28:50.469Z,3.45
2022-12-25T01:31:19.723Z,3.30
2022-12-25T01:33:47.507Z,3.20
2022-12-25T01:36:25.723Z,3.03
2022-12-25T01:38:54.185Z,3.55
2022-12-25T01:41:23.635Z,3.20
2022-12-25T01:44:04.536Z,3.25
2022-12-25T01:46:32.462Z,4.13
2022-12-25T01:49:11.972Z,2.88
2022-12-25T01:52:00.908Z,3.25
2022-12-25T01:54:36.627Z,3.00
2022-12-25T01:57:08.536Z,2.97
2022-12-25T01:59:35.489Z,3.00
2022-12-25T02:02:03.112Z,2.60
2022-12-25T02:04:40.430Z,3.00
2022-12-25T02:07:14.880Z,2.83
2022-12-25T02:09:42.164Z,2.60
2022-12-25T02:12:15.840Z,3.00
2022-12-25T02:14:43.090Z,2.72
2022-12-25T02:17:47.477Z,2.83
2022-12-25T02:20:20.813Z,2.70
2022-12-25T02:23:12.508Z,2.17
2022-12-25T02:25:58.848Z,2.60
2022-12-25T02:28:32.501Z,2.33
2022-12-25T02:31:10.597Z,2.20
2022-12-25T02:34:04.288Z,3.67
2022-12-25T02:36:51.312Z,2.20
2022-12-25T02:39:50.290Z,2.33
2022-12-25T02:42:45.651Z,2.90
2022-12-25T02:45:36.522Z,2.08
2022-12-25T02:48:23.383Z,2.20
2022-12-25T02:51:09.972Z,2.50
2022-12-25T02:53:58.951Z,2.00
2022-12-25T02:56:46.948Z,2.40
2022-12-25T02:59:35.362Z,2.22
2022-12-25T03:02:22.557Z,2.67
2022-12-25T03:05:09.643Z,2.20
2022-12-25T03:07:41.007Z,2.40
2022-12-25T03:10:29.422Z,2.40
2022-12-25T03:13:11.745Z,2.38
2022-12-25T03:15:57.155Z,2.08
2022-12-25T03:18:26.759Z,2.40
2022-12-25T03:21:12.970Z,2.67
2022-12-25T03:24:02.256Z,2.40
2022-12-25T03:26:48.352Z,2.35
2022-12-25T03:29:35.107Z,2.50
2022-12-25T03:32:26.150Z,2.15
2022-12-25T03:35:25.624Z,2.15
2022-12-25T03:38:32.176Z,2.85
2022-12-25T03:41:42.937Z,2.60
2022-12-25T03:44:53.653Z,2.53
2022-12-25T03:47:56.768Z,2.20
2022-12-25T03:50:55.441Z,2.17
2022-12-25T03:54:04.747Z,2.22
2022-12-25T03:56:52.492Z,2.28
2022-12-25T03:59:39.627Z,3.10
2022-12-25T04:02:24.985Z,2.60
2022-12-25T04:05:10.320Z,2.25
2022-12-25T04:07:55.723Z,2.47
2022-12-25T04:10:41.322Z,2.65
2022-12-25T04:13:26.841Z,2.40
2022-12-25T04:16:13.045Z,2.60
2022-12-25T04:18:58.481Z,2.67
2022-12-25T04:21:43.976Z,2.60
2022-12-25T04:24:30.258Z,2.38
2022-12-25T04:27:16.056Z,2.70
2022-12-25T04:30:01.592Z,2.58
2022-12-25T04:32:46.968Z,2.42
2022-12-25T04:35:32.333Z,2.75
2022-12-25T04:37:59.163Z,2.30
2022-12-25T04:40:26.129Z,2.72
2022-12-25T04:42:53.086Z,2.80
2022-12-25T04:45:20.149Z,2.63
2022-12-25T04:47:46.980Z,3.15
2022-12-25T04:50:13.985Z,2.72
2022-12-25T04:52:41.648Z,3.17
2022-12-25T04:55:10.341Z,2.47
2022-12-25T04:57:37.501Z,2.53
2022-12-25T05:00:06.075Z,2.85
2022-12-25T05:02:33.175Z,2.58
2022-12-25T05:05:00.264Z,2.47
2022-12-25T05:07:27.165Z,2.90
2022-12-25T05:09:54.055Z,2.53
2022-12-25T05:12:20.912Z,2.53
2022-12-25T05:14:47.713Z,2.78
2022-12-25T05:17:14.544Z,2.70
2022-12-25T05:19:42.375Z,3.10
2022-12-25T05:22:09.708Z,2.83
2022-12-25T05:24:36.559Z,2.65
2022-12-25T05:27:03.415Z,2.80
2022-12-25T05:29:30.242Z,2.60
2022-12-25T05:31:57.068Z,2.60
2022-12-25T05:34:23.924Z,2.83
2022-12-25T05:36:50.704Z,2.70
2022-12-25T05:39:17.523Z,2.90
2022-12-25T05:41:44.439Z,2.90
2022-12-25T05:44:12.586Z,2.95
2022-12-25T05:46:39.581Z,2.88
2022-12-25T05:49:06.582Z,2.58
2022-12-25T05:51:33.610Z,2.95
2022-12-25T05:54:00.515Z,2.78
2022-12-25T05:56:27.464Z,3.30
2022-12-25T05:58:54.511Z,2.90
2022-12-25T06:01:26.690Z,2.67
2022-12-25T06:03:53.988Z,2.97
2022-12-25T06:06:20.813Z,2.95
2022-12-25T06:08:47.798Z,2.90
2022-12-25T06:11:15.554Z,2.75
2022-12-25T06:13:42.703Z,3.05
2022-12-25T06:16:11.522Z,2.95
2022-12-25T06:18:43.982Z,2.90
2022-12-25T06:21:12.792Z,2.70
2022-12-25T06:23:40.580Z,3.20
2022-12-25T06:26:10.377Z,2.45
2022-12-25T06:28:37.808Z,2.63
2022-12-25T06:31:09.353Z,2.70
2022-12-25T06:33:36.813Z,2.78
2022-12-25T06:36:13.669Z,2.70
2022-12-25T06:38:41.143Z,2.88
2022-12-25T06:41:13.566Z,2.80
2022-12-25T06:43:40.346Z,2.40
2022-12-25T06:46:10.424Z,2.60
2022-12-25T06:48:39.563Z,2.70
2022-12-25T06:51:06.996Z,2.55
2022-12-25T06:53:40.580Z,3.05
2022-12-25T06:56:15.433Z,2.65
2022-12-25T06:58:50.027Z,2.63
2022-12-25T07:01:25.364Z,2.65
2022-12-25T07:03:56.613Z,3.10
2022-12-25T07:06:23.793Z,2.63
2022-12-25T07:08:50.629Z,2.50
2022-12-25T07:11:17.957Z,2.42
2022-12-25T07:13:44.894Z,2.70
2022-12-25T07:16:13.282Z,2.80
2022-12-25T07:18:40.714Z,2.63
2022-12-25T07:21:12.959Z,2.65
2022-12-25T07:23:40.116Z,2.75
2022-12-25T07:26:07.278Z,3.08
2022-12-25T07:28:35.117Z,2.47
2022-12-25T07:31:07.595Z,2.75
2022-12-25T07:33:34.850Z,2.50
2022-12-25T07:36:02.367Z,2.47
2022-12-25T07:38:29.494Z,2.42
2022-12-25T07:40:56.699Z,2.10
2022-12-25T07:43:23.836Z,2.28
2022-12-25T07:45:55.926Z,2.60
2022-12-25T07:48:22.848Z,2.40
2022-12-25T07:50:54.993Z,2.10
2022-12-25T07:53:21.855Z,2.35
2022-12-25T07:55:48.606Z,2.30
2022-12-25T07:58:19.954Z,2.00
2022-12-25T08:00:50.167Z,2.33
2022-12-25T08:03:17.277Z,1.83
2022-12-25T08:05:44.207Z,2.03
2022-12-25T08:08:11.005Z,1.80
2022-12-25T08:10:37.930Z,2.00
2022-12-25T08:13:10.823Z,1.90
2022-12-25T08:15:41.192Z,2.10
2022-12-25T08:18:08.022Z,2.15
2022-12-25T08:20:35.795Z,2.33
2022-12-25T08:23:03.288Z,2.10
2022-12-25T08:25:30.165Z,2.00
2022-12-25T08:27:57.043Z,2.15
2022-12-25T08:30:23.880Z,2.10
2022-12-25T08:32:50.746Z,2.03
2022-12-25T08:35:17.675Z,2.50
2022-12-25T08:37:44.666Z,2.13
2022-12-25T08:40:11.964Z,2.42
2022-12-25T08:42:38.789Z,2.30
2022-12-25T08:45:06.895Z,2.20
2022-12-25T08:47:33.724Z,2.53
2022-12-25T08:50:00.604Z,2.40
2022-12-25T08:52:28.678Z,1.95
2022-12-25T08:54:56.400Z,2.30
2022-12-25T08:57:23.175Z,2.67
2022-12-25T08:59:50.014Z,2.45
2022-12-25T09:02:20.630Z,2.33
2022-12-25T09:04:47.771Z,2.10
2022-12-25T09:07:14.571Z,2.65
2022-12-25T09:09:43.503Z,2.72
2022-12-25T09:12:10.457Z,2.40
2022-12-25T09:14:37.501Z,2.78
2022-12-25T09:17:04.358Z,3.10
2022-12-25T09:19:31.521Z,2.63
2022-12-25T09:21:58.624Z,3.05
2022-12-25T09:24:25.555Z,3.00
2022-12-25T09:26:52.747Z,3.10
2022-12-25T09:29:19.646Z,3.30
2022-12-25T09:31:46.463Z,3.78
2022-12-25T09:34:18.997Z,3.28
2022-12-25T09:36:46.130Z,3.17
2022-12-25T09:39:13.038Z,3.40
2022-12-25T09:42:00.960Z,3.28
2022-12-25T09:44:51.370Z,3.60
2022-12-25T09:47:25.824Z,4.20
2022-12-25T09:50:01.482Z,3.80
2022-12-25T09:52:37.219Z,3.58
2022-12-25T09:55:08.360Z,3.80
2022-12-25T09:57:35.321Z,3.72
2022-12-25T10:00:02.451Z,3.75
2022-12-25T10:02:36.117Z,3.80
2022-12-25T10:05:13.217Z,4.40
2022-12-25T10:07:43.033Z,4.63
2022-12-25T10:10:24.667Z,4.28
2022-12-25T10:13:18.508Z,4.65
2022-12-25T10:15:55.567Z,4.90
2022-12-25T10:18:44.708Z,5.38
2022-12-25T10:21:15.975Z,5.30
2022-12-25T10:24:20.645Z,4.68
2022-12-25T10:26:48.849Z,5.30
2022-12-25T10:29:19.635Z,7.05
2022-12-25T10:31:48.870Z,5.72
2022-12-25T10:34:16.421Z,5.82
2022-12-25T10:36:45.569Z,5.80
2022-12-25T10:39:24.729Z,6.78
2022-12-25T10:42:13.367Z,6.03
2022-12-25T10:44:40.157Z,6.18
2022-12-25T10:47:06.994Z,6.43
2022-12-25T10:49:39.302Z,5.53
2022-12-25T10:52:49.316Z,5.00
2022-12-25T10:55:26.600Z,5.45
2022-12-25T10:57:55.739Z,5.15
2022-12-25T11:00:25.519Z,4.78
2022-12-25T11:02:52.912Z,5.88
2022-12-25T11:05:32.131Z,5.97
2022-12-25T11:08:02.227Z,5.97
2022-12-25T11:10:36.459Z,7.25
2022-12-25T11:13:07.537Z,8.02
2022-12-25T11:15:36.650Z,6.55
2022-12-25T11:18:25.233Z,5.72
2022-12-25T11:20:54.439Z,5.70
2022-12-25T11:23:23.592Z,6.47
2022-12-25T11:26:01.608Z,6.22
2022-12-25T11:28:30.957Z,4.90
2022-12-25T11:31:03.193Z,5.10
2022-12-25T11:33:36.660Z,4.85
2022-12-25T11:36:15.825Z,4.50
2022-12-25T11:38:42.704Z,4.28
2022-12-25T11:41:12.618Z,4.97
2022-12-25T11:43:49.322Z,4.10
2022-12-25T11:46:31.953Z,4.47
2022-12-25T11:49:05.448Z,4.78
2022-12-25T11:51:38.613Z,4.53
2022-12-25T11:54:27.876Z,4.70
2022-12-25T11:56:58.233Z,4.57
2022-12-25T11:59:31.332Z,4.88
2022-12-25T12:02:10.163Z,4.63
2022-12-25T12:04:43.460Z,4.90
2022-12-25T12:07:27.349Z,7.47
2022-12-25T12:10:40.614Z,8.65
2022-12-25T12:13:27.686Z,8.35
2022-12-25T12:15:57.012Z,8.43
2022-12-25T12:18:30.832Z,7.88
2022-12-25T12:21:03.463Z,8.40
2022-12-25T12:23:34.489Z,7.32
2022-12-25T12:26:01.888Z,6.90
2022-12-25T12:28:37.446Z,6.68
2022-12-25T12:31:07.094Z,7.70
2022-12-25T12:33:40.016Z,5.97
2022-12-25T12:36:10.776Z,5.75
2022-12-25T12:38:40.915Z,5.60
2022-12-25T12:41:08.900Z,5.60
2022-12-25T12:43:38.914Z,6.53
2022-12-25T12:46:30.990Z,5.65
2022-12-25T12:49:24.687Z,5.80
2022-12-25T12:52:06.893Z,5.57
2022-12-25T12:54:53.712Z,6.78
2022-12-25T12:57:27.158Z,6.30
2022-12-25T12:59:54.118Z,6.75
2022-12-25T13:02:36.532Z,6.22
2022-12-25T13:05:06.421Z,9.27
2022-12-25T13:07:53.996Z,8.73
2022-12-25T13:10:31.670Z,10.55
2022-12-25T13:13:06.856Z,12.80
2022-12-25T13:15:35.582Z,12.20
2022-12-25T13:18:06.888Z,10.40
2022-12-25T13:20:51.215Z,8.50
2022-12-25T13:23:32.430Z,5.50
2022-12-25T13:26:01.838Z,9.63
2022-12-25T13:28:29.909Z,15.00
2022-12-25T13:31:14.310Z,10.32
2022-12-25T13:33:46.275Z,9.10
2022-12-25T13:36:14.185Z,7.20
2022-12-25T13:38:50.738Z,5.90
2022-12-25T13:41:42.539Z,7.40
2022-12-25T13:44:18.521Z,15.82
2022-12-25T13:46:45.667Z,19.55
2022-12-25T13:49:18.418Z,11.57
2022-12-25T13:51:46.073Z,8.52
2022-12-25T13:54:14.903Z,6.45
2022-12-25T13:56:51.207Z,5.97
2022-12-25T13:59:23.285Z,5.53
2022-12-25T14:01:51.537Z,5.40
2022-12-25T14:04:22.164Z,5.55
2022-12-25T14:06:52.249Z,5.70
2022-12-25T14:09:19.710Z,5.07
2022-12-25T14:11:50.442Z,5.13
2022-12-25T14:14:24.942Z,5.55
2022-12-25T14:16:54.683Z,6.85
2022-12-25T14:19:31.775Z,7.40
2022-12-25T14:22:11.127Z,8.88
2022-12-25T14:24:40.125Z,7.78
2022-12-25T14:27:22.057Z,7.30
2022-12-25T14:29:50.533Z,6.95
2022-12-25T14:32:23.537Z,6.20
2022-12-25T14:34:56.860Z,6.65
2022-12-25T14:37:28.344Z,6.25
2022-12-25T14:40:06.459Z,6.15
2022-12-25T14:42:37.483Z,5.65
2022-12-25T14:45:26.343Z,5.95
2022-12-25T14:47:55.888Z,6.85
2022-12-25T14:50:44.058Z,7.25
2022-12-25T14:53:36.290Z,7.20
2022-12-25T14:56:03.666Z,7.15
2022-12-25T14:58:34.716Z,9.82
2022-12-25T15:01:04.266Z,10.15
2022-12-25T15:03:35.448Z,9.48
2022-12-25T15:06:04.615Z,8.75
2022-12-25T15:08:33.070Z,7.80
2022-12-25T15:11:02.671Z,9.05
2022-12-25T15:13:31.514Z,10.43
2022-12-25T15:16:16.782Z,10.85
2022-12-25T15:18:46.202Z,11.30
2022-12-25T15:21:30.796Z,9.18
2022-12-25T15:23:58.976Z,8.50
2022-12-25T15:26:27.476Z,6.85
2022-12-25T15:28:54.295Z,6.97
2022-12-25T15:31:31.158Z,6.90
2022-12-25T15:34:00.595Z,7.18
2022-12-25T15:36:28.002Z,7.35
2022-12-25T15:38:55.640Z,7.25
2022-12-25T15:41:54.319Z,7.40
2022-12-25T15:44:24.319Z,7.88
2022-12-25T15:46:51.918Z,7.30
2022-12-25T15:49:19.018Z,7.57
2022-12-25T15:51:46.068Z,6.85
2022-12-25T15:54:12.971Z,7.22
2022-12-25T15:56:46.749Z,8.55
2022-12-25T15:59:15.108Z,7.95
2022-12-25T16:01:46.368Z,7.78
2022-12-25T16:04:13.497Z,7.95
2022-12-25T16:06:40.548Z,9.77
2022-12-25T16:09:07.686Z,9.57
2022-12-25T16:11:34.530Z,12.77
2022-12-25T16:14:01.329Z,18.05
2022-12-25T16:16:28.346Z,15.68
2022-12-25T16:18:55.227Z,17.60
2022-12-25T16:21:23.051Z,16.33
2022-12-25T16:23:50.116Z,14.57
2022-12-25T16:26:17.001Z,12.68
2022-12-25T16:28:43.840Z,11.52
2022-12-25T16:31:12.033Z,11.15
2022-12-25T16:33:38.945Z,12.70
2022-12-25T16:36:06.207Z,13.98
2022-12-25T16:38:34.160Z,11.07
2022-12-25T16:41:04.607Z,10.77
2022-12-25T16:43:31.455Z,10.35
2022-12-25T16:45:58.507Z,8.13
2022-12-25T16:48:25.574Z,7.63
2022-12-25T16:50:52.473Z,6.88
2022-12-25T16:53:19.459Z,7.45
2022-12-25T16:55:46.301Z,7.40
2022-12-25T16:58:13.155Z,7.85
2022-12-25T17:00:44.243Z,7.13
2022-12-25T17:03:16.108Z,6.78
2022-12-25T17:05:43.072Z,6.70
2022-12-25T17:08:09.883Z,5.93
2022-12-25T17:10:39.177Z,5.43
2022-12-25T17:13:06.061Z,5.60
2022-12-25T17:15:32.870Z,6.32
2022-12-25T17:17:59.875Z,6.38
2022-12-25T17:20:26.680Z,6.05
2022-12-25T17:22:53.548Z,5.97
2022-12-25T17:25:20.405Z,6.18
2022-12-25T17:27:50.525Z,6.30
2022-12-25T17:30:17.447Z,6.70
2022-12-25T17:32:44.383Z,6.22
2022-12-25T17:35:11.195Z,7.38
2022-12-25T17:37:38.160Z,8.30
2022-12-25T17:40:05.384Z,6.78
2022-12-25T17:42:32.402Z,6.18
2022-12-25T17:44:59.331Z,5.90
2022-12-25T17:47:26.291Z,5.80
2022-12-25T17:49:53.105Z,5.10
2022-12-25T17:52:19.992Z,5.13
2022-12-25T17:54:46.819Z,4.88
2022-12-25T17:57:13.636Z,5.13
2022-12-25T17:59:40.637Z,5.80
2022-12-25T18:02:09.038Z,5.22
2022-12-25T18:04:36.370Z,5.07
2022-12-25T18:07:03.468Z,5.30
2022-12-25T18:09:30.602Z,5.90
2022-12-25T18:11:57.555Z,5.97
2022-12-25T18:14:24.392Z,5.60
2022-12-25T18:16:51.365Z,5.90
2022-12-25T18:19:19.654Z,5.72
2022-12-25T18:21:46.731Z,5.40
2022-12-25T18:24:13.666Z,5.75
2022-12-25T18:26:40.909Z,6.00
2022-12-25T18:29:07.837Z,6.30
2022-12-25T18:31:35.100Z,5.93
2022-12-25T18:34:04.748Z,5.50
2022-12-25T18:36:31.859Z,5.75
2022-12-25T18:38:59.155Z,5.47
2022-12-25T18:41:28.692Z,5.57
2022-12-25T18:43:56.255Z,5.45
2022-12-25T18:46:25.519Z,5.47
2022-12-25T18:48:54.849Z,5.55
2022-12-25T18:51:22.101Z,6.15
2022-12-25T18:53:48.984Z,5.80
2022-12-25T18:56:17.848Z,5.50
2022-12-25T18:58:46.794Z,6.03
2022-12-25T19:01:19.809Z,5.65
2022-12-25T19:03:48.841Z,5.60
2022-12-25T19:06:19.924Z,5.32
2022-12-25T19:08:47.116Z,5.85
2022-12-25T19:11:14.616Z,5.70
2022-12-25T19:13:41.396Z,5.68
2022-12-25T19:16:08.386Z,5.35
2022-12-25T19:18:35.311Z,5.65
2022-12-25T19:21:03.892Z,5.90
2022-12-25T19:23:31.276Z,6.07
2022-12-25T19:25:58.192Z,5.57
2022-12-25T19:28:25.202Z,5.80
2022-12-25T19:30:55.325Z,5.82
2022-12-25T19:33:32.281Z,5.57
2022-12-25T19:36:03.479Z,6.05
2022-12-25T19:38:30.700Z,5.30
2022-12-25T19:41:01.029Z,6.03
2022-12-25T19:43:33.854Z,6.05
2022-12-25T19:46:01.975Z,6.20
2022-12-25T19:48:30.176Z,6.28
2022-12-25T19:50:57.147Z,6.55
2022-12-25T19:53:24.645Z,6.78
2022-12-25T19:55:52.616Z,6.85
2022-12-25T19:58:23.717Z,6.55
2022-12-25T20:01:01.801Z,6.90
2022-12-25T20:03:28.887Z,7.25
2022-12-25T20:05:55.819Z,7.40
2022-12-25T20:08:23.219Z,6.47
2022-12-25T20:10:50.800Z,6.70
2022-12-25T20:13:17.947Z,6.70
2022-12-25T20:15:44.990Z,7.07
2022-12-25T20:18:11.782Z,6.88
2022-12-25T20:20:38.711Z,6.82
2022-12-25T20:23:05.944Z,7.18
2022-12-25T20:25:32.999Z,6.15
2022-12-25T20:27:59.836Z,6.53
2022-12-25T20:30:26.657Z,6.43
2022-12-25T20:32:53.594Z,6.03
2022-12-25T20:35:20.488Z,6.13
2022-12-25T20:37:47.401Z,5.80
2022-12-25T20:40:14.229Z,5.40
2022-12-25T20:42:41.173Z,5.50
2022-12-25T20:45:08.291Z,5.35
2022-12-25T20:47:35.593Z,5.60
2022-12-25T20:50:02.749Z,5.22
2022-12-25T20:52:29.584Z,4.82
2022-12-25T20:54:56.415Z,4.70
2022-12-25T20:57:23.232Z,4.78
2022-12-25T20:59:50.056Z,5.05
2022-12-25T21:02:34.263Z,3.75
2022-12-25T21:05:02.325Z,3.67
2022-12-25T21:07:29.309Z,3.15
2022-12-25T21:09:58.572Z,3.88
2022-12-25T21:12:26.283Z,4.50
2022-12-25T21:14:53.207Z,4.45
2022-12-25T21:17:20.313Z,3.85
2022-12-25T21:19:47.203Z,3.90
2022-12-25T21:22:14.252Z,4.25
2022-12-25T21:24:41.078Z,4.30
2022-12-25T21:27:07.862Z,3.95
2022-12-25T21:29:34.738Z,3.63
2022-12-25T21:32:20.165Z,3.92
2022-12-25T21:34:47.058Z,4.25
2022-12-25T21:37:13.867Z,4.22
2022-12-25T21:39:40.738Z,4.25
2022-12-25T21:42:07.711Z,4.38
2022-12-25T21:44:34.625Z,3.95
2022-12-25T21:47:01.467Z,4.30
2022-12-25T21:49:47.056Z,4.38
2022-12-25T21:52:13.867Z,4.60
2022-12-25T21:54:40.895Z,5.40
2022-12-25T21:57:07.704Z,4.50
2022-12-25T21:59:34.571Z,5.13
2022-12-25T22:02:01.595Z,5.35
2022-12-25T22:04:28.923Z,4.72
2022-12-25T22:07:14.282Z,4.80
2022-12-25T22:09:47.314Z,4.10
2022-12-25T22:12:34.717Z,4.15
2022-12-25T22:15:06.078Z,3.65
2022-12-25T22:17:59.494Z,3.30
2022-12-25T22:20:37.079Z,3.95
2022-12-25T22:23:04.520Z,3.85
2022-12-25T22:25:31.356Z,3.47
2022-12-25T22:27:58.527Z,3.80
2022-12-25T22:30:29.264Z,3.72
2022-12-25T22:32:56.655Z,3.80
2022-12-25T22:35:23.853Z,3.88
2022-12-25T22:37:51.296Z,3.95
2022-12-25T22:40:20.160Z,4.30
2022-12-25T22:42:47.349Z,4.80
2022-12-25T22:45:14.643Z,5.30
2022-12-25T22:47:41.735Z,4.72
2022-12-25T22:50:09.637Z,4.78
2022-12-25T22:52:37.063Z,4.55
2022-12-25T22:55:05.672Z,4.78
2022-12-25T22:57:32.509Z,4.53
2022-12-25T22:59:59.471Z,5.25
2022-12-25T23:02:26.818Z,5.75
2022-12-25T23:04:53.918Z,4.80
2022-12-25T23:07:20.708Z,4.75
2022-12-25T23:09:47.754Z,4.93
2022-12-25T23:12:33.082Z,4.80
2022-12-25T23:14:59.984Z,4.75
2022-12-25T23:17:45.721Z,4.80
2022-12-25T23:20:33.377Z,4.78
2022-12-25T23:23:19.235Z,4.88
2022-12-25T23:26:04.910Z,4.32
2022-12-25T23:29:04.109Z,4.55
2022-12-25T23:31:41.421Z,4.50
2022-12-25T23:34:09.324Z,4.15
2022-12-25T23:36:36.566Z,4.53
2022-12-25T23:39:09.706Z,4.70
2022-12-25T23:41:39.190Z,5.20
2022-12-25T23:44:06.549Z,5.18
2022-12-25T23:46:33.627Z,5.63
2022-12-25T23:49:00.512Z,4.50
2022-12-25T23:51:27.524Z,4.28
2022-12-25T23:53:54.503Z,4.28
2022-12-25T23:56:21.714Z,4.28
2022-12-25T23:58:52.062Z,3.65
